createdAt,value
2019-05-05T00:01:55.501Z,90.70
2019-05-05T00:05:01.239Z,90.60
2019-05-05T00:07:31.147Z,90.90
2019-05-05T00:09:58.952Z,90.80
2019-05-05T00:12:50.991Z,91.10
2019-05-05T00:15:47.816Z,91.20
2019-05-05T00:18:17.344Z,91.10
2019-05-05T00:20:45.055Z,91.20
2019-05-05T00:23:14.562Z,91.70
2019-05-05T00:25:44.635Z,91.50
2019-05-05T00:28:14.192Z,91.60
2019-05-05T00:30:41.679Z,91.30
2019-05-05T00:33:09.478Z,91.60
2019-05-05T00:35:37.175Z,91.80
2019-05-05T00:38:05.238Z,91.80
2019-05-05T00:40:35.290Z,91.60
2019-05-05T00:43:05.180Z,91.70
2019-05-05T00:45:34.478Z,91.70
2019-05-05T00:48:20.266Z,91.50
2019-05-05T00:50:48.018Z,91.60
2019-05-05T00:53:15.765Z,91.60
2019-05-05T00:55:44.291Z,91.80
2019-05-05T00:58:14.183Z,92.10
2019-05-05T01:00:50.111Z,91.80
2019-05-05T01:03:19.734Z,91.80
2019-05-05T01:06:09.105Z,91.60
2019-05-05T01:08:36.904Z,91.70
2019-05-05T01:11:04.731Z,91.90
2019-05-05T01:13:32.482Z,91.90
2019-05-05T01:16:00.134Z,91.60
2019-05-05T01:18:27.822Z,91.60
2019-05-05T01:20:56.521Z,91.50
2019-05-05T01:23:24.487Z,91.60
2019-05-05T01:25:54.262Z,91.60
2019-05-05T01:28:22.006Z,91.70
2019-05-05T01:30:54.903Z,91.60
2019-05-05T01:33:28.917Z,91.50
2019-05-05T01:35:56.611Z,91.60
2019-05-05T01:38:52.735Z,91.70
2019-05-05T01:41:39.190Z,91.50
2019-05-05T01:44:07.011Z,91.50
2019-05-05T01:46:35.403Z,91.70
2019-05-05T01:49:05.333Z,91.90
2019-05-05T01:51:35.352Z,91.60
2019-05-05T01:54:05.025Z,91.70
2019-05-05T01:56:35.721Z,91.60
2019-05-05T01:59:05.148Z,91.90
2019-05-05T02:01:35.243Z,91.90
2019-05-05T02:04:05.342Z,91.70
2019-05-05T02:06:34.841Z,91.50
2019-05-05T02:09:02.418Z,91.40
2019-05-05T02:11:32.099Z,91.50
2019-05-05T02:13:59.843Z,91.40
2019-05-05T02:16:27.595Z,91.70
2019-05-05T02:18:55.322Z,91.30
2019-05-05T02:21:24.757Z,91.30
2019-05-05T02:23:54.550Z,91.40
2019-05-05T02:26:24.386Z,91.60
2019-05-05T02:29:07.364Z,91.60
2019-05-05T02:31:48.688Z,91.60
2019-05-05T02:34:16.606Z,91.30
2019-05-05T02:36:45.999Z,91.30
2019-05-05T02:39:16.043Z,90.90
2019-05-05T02:41:45.187Z,90.60
2019-05-05T02:44:15.446Z,90.50
2019-05-05T02:46:48.620Z,90.40
2019-05-05T02:49:16.724Z,90.50
2019-05-05T02:51:46.255Z,90.70
2019-05-05T02:54:16.020Z,90.80
2019-05-05T02:56:49.179Z,90.70
2019-05-05T02:59:26.623Z,90.60
2019-05-05T03:02:04.270Z,90.70
2019-05-05T03:04:33.645Z,90.60
2019-05-05T03:07:04.697Z,90.70
2019-05-05T03:09:34.701Z,91.10
2019-05-05T03:12:04.736Z,90.80
2019-05-05T03:14:35.269Z,91.30
2019-05-05T03:17:08.268Z,91.30
2019-05-05T03:19:35.955Z,91.50
2019-05-05T03:22:04.779Z,91.80
2019-05-05T03:24:34.094Z,91.90
2019-05-05T03:27:03.827Z,91.80
2019-05-05T03:29:33.597Z,92.00
2019-05-05T03:32:05.231Z,91.70
2019-05-05T03:34:31.692Z,91.80
2019-05-05T03:37:00.278Z,91.90
2019-05-05T03:39:30.115Z,91.70
2019-05-05T03:42:08.667Z,91.90
2019-05-05T03:44:45.110Z,91.90
2019-05-05T03:47:13.954Z,92.00
2019-05-05T03:49:41.673Z,92.10
2019-05-05T03:52:09.294Z,92.10
2019-05-05T03:54:36.944Z,92.10
2019-05-05T03:57:07.658Z,92.40
2019-05-05T03:59:37.973Z,92.10
2019-05-05T04:02:24.523Z,92.20
2019-05-05T04:04:54.781Z,92.30
2019-05-05T04:07:24.160Z,92.30
2019-05-05T04:09:54.095Z,92.30
2019-05-05T04:12:21.511Z,92.20
2019-05-05T04:14:50.200Z,92.30
2019-05-05T04:17:40.897Z,92.40
2019-05-05T04:20:26.770Z,92.40
2019-05-05T04:22:57.885Z,92.50
2019-05-05T04:25:24.412Z,92.50
2019-05-05T04:27:53.832Z,92.60
2019-05-05T04:30:23.674Z,92.70
2019-05-05T04:32:51.464Z,92.70
2019-05-05T04:35:19.311Z,92.30
2019-05-05T04:37:46.907Z,92.40
2019-05-05T04:40:14.959Z,92.50
2019-05-05T04:42:44.121Z,92.80
2019-05-05T04:45:14.799Z,92.70
2019-05-05T04:47:45.505Z,92.80
2019-05-05T04:50:23.995Z,92.80
2019-05-05T04:52:54.020Z,92.70
2019-05-05T04:55:22.015Z,92.60
2019-05-05T04:57:49.807Z,92.60
2019-05-05T05:00:17.997Z,92.20
2019-05-05T05:03:05.156Z,92.00
2019-05-05T05:05:53.716Z,92.10
2019-05-05T05:08:21.845Z,91.40
2019-05-05T05:10:49.658Z,92.10
2019-05-05T05:13:17.285Z,91.80
2019-05-05T05:15:45.139Z,91.60
2019-05-05T05:18:15.342Z,91.80
2019-05-05T05:20:44.276Z,91.50
2019-05-05T05:23:14.127Z,91.40
2019-05-05T05:25:43.863Z,91.40
2019-05-05T05:28:14.169Z,91.30
2019-05-05T05:30:43.795Z,90.90
2019-05-05T05:33:11.454Z,90.90
2019-05-05T05:35:39.256Z,90.90
2019-05-05T05:38:06.920Z,90.80
2019-05-05T05:40:41.212Z,90.80
2019-05-05T05:43:13.955Z,91.20
2019-05-05T05:45:57.379Z,90.70
2019-05-05T05:48:34.059Z,90.40
2019-05-05T05:51:23.684Z,90.50
2019-05-05T05:53:51.045Z,90.50
2019-05-05T05:56:18.713Z,90.60
2019-05-05T05:58:47.291Z,90.30
2019-05-05T06:01:15.112Z,90.00
2019-05-05T06:03:44.350Z,90.30
2019-05-05T06:06:13.831Z,90.20
2019-05-05T06:08:43.833Z,89.90
2019-05-05T06:11:13.539Z,89.30
2019-05-05T06:13:41.352Z,89.60
2019-05-05T06:16:09.190Z,89.30
2019-05-05T06:18:36.860Z,89.50
2019-05-05T06:21:04.714Z,89.30
2019-05-05T06:23:34.460Z,88.70
2019-05-05T06:26:06.959Z,88.30
2019-05-05T06:28:34.037Z,86.50
2019-05-05T06:31:01.658Z,86.00
2019-05-05T06:33:29.675Z,85.90
2019-05-05T06:35:57.464Z,85.50
2019-05-05T06:38:25.370Z,85.20
2019-05-05T06:41:04.200Z,84.80
2019-05-05T06:43:40.044Z,84.80
2019-05-05T06:46:09.233Z,84.70
2019-05-05T06:48:36.888Z,82.90
2019-05-05T06:51:04.585Z,82.80
2019-05-05T06:53:34.181Z,82.30
2019-05-05T06:56:04.056Z,82.10
2019-05-05T06:58:31.826Z,81.80
2019-05-05T07:00:59.921Z,81.40
2019-05-05T07:03:27.571Z,81.20
2019-05-05T07:05:55.462Z,80.90
2019-05-05T07:08:24.369Z,81.00
2019-05-05T07:10:52.352Z,79.50
2019-05-05T07:13:20.259Z,79.20
2019-05-05T07:15:47.954Z,79.50
2019-05-05T07:18:17.639Z,78.60
2019-05-05T07:20:45.330Z,77.90
2019-05-05T07:23:14.509Z,77.10
2019-05-05T07:25:45.297Z,75.70
2019-05-05T07:28:14.504Z,76.60
2019-05-05T07:30:44.084Z,73.30
2019-05-05T07:33:11.606Z,72.20
2019-05-05T07:35:56.634Z,72.60
2019-05-05T07:38:21.632Z,70.80
2019-05-05T07:40:49.331Z,71.40
2019-05-05T07:43:17.190Z,71.10
2019-05-05T07:45:44.799Z,70.90
2019-05-05T07:48:13.904Z,69.70
2019-05-05T07:50:45.011Z,70.40
2019-05-05T07:53:15.035Z,71.00
2019-05-05T07:55:43.569Z,71.00
2019-05-05T07:58:10.846Z,71.10
2019-05-05T08:00:38.626Z,69.20
2019-05-05T08:03:06.600Z,68.40
2019-05-05T08:05:34.362Z,67.70
2019-05-05T08:08:04.462Z,66.50
2019-05-05T08:10:31.880Z,65.60
2019-05-05T08:12:59.574Z,67.60
2019-05-05T08:15:28.728Z,67.40
2019-05-05T08:18:14.760Z,67.00
2019-05-05T08:20:48.157Z,66.40
2019-05-05T08:23:35.626Z,65.00
2019-05-05T08:26:33.648Z,64.60
2019-05-05T08:29:21.024Z,63.40
2019-05-05T08:31:56.803Z,63.30
2019-05-05T08:34:24.781Z,63.40
2019-05-05T08:36:53.836Z,61.50
2019-05-05T08:39:24.289Z,61.40
2019-05-05T08:41:53.701Z,62.30
2019-05-05T08:44:23.532Z,62.00
2019-05-05T08:46:50.891Z,61.30
2019-05-05T08:49:18.643Z,59.70
2019-05-05T08:51:46.342Z,57.30
2019-05-05T08:54:14.423Z,52.00
2019-05-05T08:56:42.257Z,51.60
2019-05-05T08:59:11.001Z,51.20
2019-05-05T09:01:38.854Z,51.90
2019-05-05T09:04:07.902Z,51.40
2019-05-05T09:06:37.768Z,52.10
2019-05-05T09:09:06.424Z,53.70
2019-05-05T09:11:34.611Z,57.00
2019-05-05T09:14:04.764Z,57.50
2019-05-05T09:16:33.537Z,57.80
2019-05-05T09:19:06.537Z,58.20
2019-05-05T09:21:34.657Z,57.10
2019-05-05T09:24:20.843Z,56.70
2019-05-05T09:27:14.100Z,57.60
2019-05-05T09:29:43.935Z,56.00
2019-05-05T09:32:13.875Z,56.00
2019-05-05T09:34:43.581Z,54.70
2019-05-05T09:37:11.730Z,55.20
2019-05-05T09:39:39.576Z,55.00
2019-05-05T09:42:07.298Z,55.50
2019-05-05T09:44:35.079Z,55.30
2019-05-05T09:47:04.784Z,55.70
2019-05-05T09:49:33.867Z,56.30
2019-05-05T09:52:01.831Z,55.90
2019-05-05T09:54:31.167Z,55.40
2019-05-05T09:56:59.135Z,55.80
2019-05-05T09:59:26.934Z,55.30
2019-05-05T10:01:54.851Z,54.90
2019-05-05T10:04:24.303Z,55.80
2019-05-05T10:06:52.241Z,55.70
2019-05-05T10:09:20.284Z,55.20
2019-05-05T10:11:47.983Z,54.80
2019-05-05T10:14:15.740Z,54.60
2019-05-05T10:16:43.511Z,55.50
2019-05-05T10:19:13.882Z,56.60
2019-05-05T10:21:44.188Z,57.00
2019-05-05T10:24:34.261Z,57.60
2019-05-05T10:27:02.161Z,57.10
2019-05-05T10:29:30.123Z,55.90
2019-05-05T10:31:57.898Z,55.90
2019-05-05T10:34:25.582Z,55.70
2019-05-05T10:36:53.616Z,55.70
2019-05-05T10:39:33.456Z,54.30
2019-05-05T10:42:01.509Z,54.00
2019-05-05T10:44:29.311Z,54.80
2019-05-05T10:46:57.229Z,55.50
2019-05-05T10:49:25.118Z,53.90
2019-05-05T10:51:54.446Z,54.70
2019-05-05T10:54:23.673Z,54.50
2019-05-05T10:56:51.636Z,53.50
2019-05-05T10:59:19.572Z,53.80
2019-05-05T11:01:47.482Z,54.20
2019-05-05T11:04:16.483Z,55.10
2019-05-05T11:06:44.424Z,55.70
2019-05-05T11:09:13.977Z,55.40
2019-05-05T11:11:43.863Z,55.20
2019-05-05T11:14:14.007Z,56.30
2019-05-05T11:16:43.753Z,55.40
2019-05-05T11:19:13.700Z,54.20
2019-05-05T11:21:43.530Z,53.90
2019-05-05T11:24:11.708Z,54.80
2019-05-05T11:26:39.601Z,54.20
2019-05-05T11:29:07.404Z,54.30
2019-05-05T11:31:35.223Z,52.50
2019-05-05T11:34:13.858Z,51.90
2019-05-05T11:36:48.469Z,48.80
2019-05-05T11:39:16.655Z,46.80
2019-05-05T11:41:44.333Z,47.00
2019-05-05T11:44:12.143Z,47.30
2019-05-05T11:46:39.895Z,48.80
2019-05-05T11:49:08.067Z,48.90
2019-05-05T11:51:36.107Z,49.70
2019-05-05T11:54:04.669Z,50.50
2019-05-05T11:56:33.971Z,49.10
2019-05-05T11:59:03.930Z,47.70
2019-05-05T12:01:33.036Z,45.80
2019-05-05T12:04:04.081Z,41.40
2019-05-05T12:06:33.982Z,38.90
2019-05-05T12:09:03.585Z,38.00
2019-05-05T12:11:34.511Z,39.00
2019-05-05T12:14:04.606Z,40.00
2019-05-05T12:16:34.516Z,42.50
2019-05-05T12:19:06.582Z,45.90
2019-05-05T12:21:34.577Z,46.10
2019-05-05T12:24:07.530Z,45.10
2019-05-05T12:26:43.921Z,42.80
2019-05-05T12:29:18.092Z,45.70
2019-05-05T12:31:48.497Z,46.00
2019-05-05T12:34:16.265Z,46.50
2019-05-05T12:36:44.583Z,47.40
2019-05-05T12:39:15.590Z,48.20
2019-05-05T12:41:43.770Z,47.50
2019-05-05T12:44:16.656Z,47.90
2019-05-05T12:47:03.839Z,47.90
2019-05-05T12:49:33.739Z,49.60
2019-05-05T12:52:01.448Z,50.00
2019-05-05T12:54:29.118Z,50.10
2019-05-05T12:56:57.011Z,48.80
2019-05-05T12:59:26.009Z,49.70
2019-05-05T13:01:54.687Z,49.80
2019-05-05T13:04:24.532Z,50.60
2019-05-05T13:06:54.031Z,51.20
2019-05-05T13:09:24.183Z,51.20
2019-05-05T13:11:51.699Z,51.40
2019-05-05T13:14:20.686Z,51.50
2019-05-05T13:16:52.908Z,50.50
2019-05-05T13:19:34.693Z,51.30
2019-05-05T13:22:20.920Z,50.80
2019-05-05T13:25:15.807Z,50.00
2019-05-05T13:27:44.364Z,48.90
2019-05-05T13:30:12.272Z,48.00
2019-05-05T13:32:40.227Z,47.60
2019-05-05T13:35:08.461Z,46.20
2019-05-05T13:37:36.348Z,46.00
2019-05-05T13:40:05.494Z,48.00
2019-05-05T13:42:33.206Z,49.10
2019-05-05T13:45:23.762Z,49.10
2019-05-05T13:47:51.721Z,49.30
2019-05-05T13:50:34.109Z,49.90
2019-05-05T13:53:03.891Z,50.00
2019-05-05T13:55:34.680Z,49.90
2019-05-05T13:58:03.968Z,50.60
2019-05-05T14:00:33.776Z,51.30
2019-05-05T14:03:03.862Z,52.40
2019-05-05T14:05:31.785Z,52.20
2019-05-05T14:07:59.856Z,51.40
2019-05-05T14:10:27.683Z,51.00
2019-05-05T14:12:56.672Z,50.70
2019-05-05T14:15:24.947Z,51.00
2019-05-05T14:17:54.354Z,51.60
2019-05-05T14:20:23.953Z,51.30
2019-05-05T14:22:54.243Z,51.70
2019-05-05T14:25:24.612Z,50.30
2019-05-05T14:27:54.152Z,50.50
2019-05-05T14:30:37.664Z,49.80
2019-05-05T14:33:06.842Z,47.20
2019-05-05T14:36:08.870Z,44.30
2019-05-05T14:38:56.548Z,43.20
2019-05-05T14:41:24.403Z,42.50
2019-05-05T14:43:54.548Z,42.40
2019-05-05T14:46:23.512Z,44.20
2019-05-05T14:48:53.400Z,45.60
2019-05-05T14:51:21.288Z,46.70
2019-05-05T14:53:49.002Z,47.00
2019-05-05T14:56:16.883Z,47.20
2019-05-05T14:58:44.888Z,48.20
2019-05-05T15:01:14.447Z,49.00
2019-05-05T15:03:44.338Z,48.80
2019-05-05T15:06:17.983Z,49.60
2019-05-05T15:08:57.854Z,48.70
2019-05-05T15:11:48.723Z,49.00
2019-05-05T15:14:17.936Z,49.90
2019-05-05T15:16:45.730Z,49.60
2019-05-05T15:19:14.515Z,49.20
2019-05-05T15:21:44.159Z,49.60
2019-05-05T15:24:13.694Z,49.50
2019-05-05T15:26:51.178Z,51.90
2019-05-05T15:29:11.757Z,50.60
2019-05-05T15:31:39.591Z,49.90
2019-05-05T15:34:07.240Z,49.50
2019-05-05T15:36:35.183Z,48.70
2019-05-05T15:39:04.757Z,48.50
2019-05-05T15:41:34.413Z,48.00
2019-05-05T15:44:03.727Z,48.10
2019-05-05T15:46:33.714Z,48.00
2019-05-05T15:49:01.703Z,49.20
2019-05-05T15:51:29.349Z,48.30
2019-05-05T15:53:57.126Z,47.90
2019-05-05T15:56:24.909Z,48.70
2019-05-05T15:58:53.630Z,47.60
2019-05-05T16:01:21.318Z,48.40
2019-05-05T16:03:49.188Z,48.70
2019-05-05T16:06:17.123Z,48.90
2019-05-05T16:08:44.762Z,48.30
2019-05-05T16:11:15.191Z,48.50
2019-05-05T16:13:44.047Z,48.70
2019-05-05T16:16:34.544Z,49.50
2019-05-05T16:19:13.897Z,50.00
2019-05-05T16:22:06.632Z,49.70
2019-05-05T16:24:36.704Z,49.30
2019-05-05T16:27:18.629Z,49.60
2019-05-05T16:29:37.998Z,49.50
2019-05-05T16:32:18.575Z,51.30
2019-05-05T16:34:35.343Z,51.20
2019-05-05T16:37:03.861Z,50.80
2019-05-05T16:39:33.620Z,49.50
2019-05-05T16:42:04.947Z,50.10
2019-05-05T16:44:34.077Z,52.00
2019-05-05T16:47:01.947Z,51.50
2019-05-05T16:49:30.928Z,50.40
2019-05-05T16:52:07.182Z,50.50
2019-05-05T16:54:40.290Z,51.30
2019-05-05T16:57:14.541Z,51.20
2019-05-05T16:59:44.103Z,50.70
2019-05-05T17:02:13.905Z,51.10
2019-05-05T17:04:43.382Z,49.40
2019-05-05T17:07:11.449Z,50.10
2019-05-05T17:09:39.154Z,49.50
2019-05-05T17:12:10.254Z,49.90
2019-05-05T17:14:57.962Z,49.70
2019-05-05T17:17:38.267Z,49.70
2019-05-05T17:20:09.616Z,50.20
2019-05-05T17:22:41.995Z,51.10
2019-05-05T17:25:10.314Z,50.60
2019-05-05T17:27:47.772Z,52.20
2019-05-05T17:30:08.413Z,51.70
2019-05-05T17:32:36.124Z,52.10
2019-05-05T17:35:04.121Z,53.00
2019-05-05T17:37:35.059Z,52.20
2019-05-05T17:40:12.959Z,52.10
2019-05-05T17:43:03.164Z,52.10
2019-05-05T17:45:48.891Z,52.10
2019-05-05T17:48:26.355Z,52.60
2019-05-05T17:51:13.968Z,52.70
2019-05-05T17:53:59.146Z,52.70
2019-05-05T17:56:26.964Z,53.40
2019-05-05T17:58:54.746Z,53.00
2019-05-05T18:01:23.957Z,52.30
2019-05-05T18:03:51.871Z,52.40
2019-05-05T18:06:39.179Z,52.80
2019-05-05T18:09:19.459Z,53.60
2019-05-05T18:12:05.090Z,53.50
2019-05-05T18:14:33.568Z,53.20
2019-05-05T18:17:01.515Z,53.40
2019-05-05T18:19:30.803Z,54.50
2019-05-05T18:21:58.655Z,57.20
2019-05-05T18:24:26.646Z,58.60
2019-05-05T18:26:54.427Z,59.70
2019-05-05T18:29:24.131Z,60.30
2019-05-05T18:31:53.517Z,60.60
2019-05-05T18:34:23.431Z,61.20
2019-05-05T18:36:51.294Z,61.80
2019-05-05T18:39:18.931Z,62.80
2019-05-05T18:41:57.328Z,62.60
2019-05-05T18:44:33.480Z,62.90
2019-05-05T18:47:20.803Z,63.30
2019-05-05T18:49:48.576Z,63.90
2019-05-05T18:52:16.410Z,63.80
2019-05-05T18:54:44.249Z,64.60
2019-05-05T18:57:12.156Z,64.20
2019-05-05T18:59:39.899Z,64.60
2019-05-05T19:02:17.822Z,64.70
2019-05-05T19:04:54.401Z,65.10
2019-05-05T19:07:33.575Z,65.40
2019-05-05T19:10:03.869Z,65.60
2019-05-05T19:12:34.501Z,65.90
2019-05-05T19:15:04.167Z,66.30
2019-05-05T19:17:34.537Z,67.00
2019-05-05T19:20:10.792Z,67.50
2019-05-05T19:22:38.653Z,67.90
2019-05-05T19:25:15.633Z,68.30
2019-05-05T19:27:44.756Z,68.70
2019-05-05T19:30:13.743Z,69.50
2019-05-05T19:32:43.602Z,69.30
2019-05-05T19:35:14.461Z,69.90
2019-05-05T19:37:44.352Z,70.00
2019-05-05T19:40:14.071Z,70.00
2019-05-05T19:42:45.752Z,70.00
2019-05-05T19:45:11.639Z,70.60
2019-05-05T19:47:39.708Z,69.00
2019-05-05T19:50:33.743Z,69.20
2019-05-05T19:53:01.809Z,69.30
2019-05-05T19:55:29.539Z,69.70
2019-05-05T19:57:57.385Z,70.00
2019-05-05T20:00:26.333Z,70.50
2019-05-05T20:03:03.972Z,70.60
2019-05-05T20:05:24.656Z,71.00
2019-05-05T20:07:52.879Z,71.30
2019-05-05T20:10:21.034Z,71.70
2019-05-05T20:12:48.935Z,72.10
2019-05-05T20:15:25.302Z,72.60
2019-05-05T20:17:53.900Z,73.10
2019-05-05T20:20:22.410Z,73.60
2019-05-05T20:22:50.133Z,74.30
2019-05-05T20:25:17.943Z,74.70
2019-05-05T20:27:45.724Z,75.00
2019-05-05T20:30:14.244Z,75.50
2019-05-05T20:32:51.863Z,76.50
2019-05-05T20:35:33.892Z,76.90
2019-05-05T20:38:24.220Z,77.50
2019-05-05T20:41:10.218Z,77.30
2019-05-05T20:43:38.227Z,77.40
2019-05-05T20:46:06.125Z,77.50
2019-05-05T20:48:34.586Z,77.70
2019-05-05T20:51:03.996Z,77.70
2019-05-05T20:53:34.275Z,78.40
2019-05-05T20:56:04.113Z,78.90
2019-05-05T20:58:33.488Z,80.20
2019-05-05T21:01:01.184Z,80.30
2019-05-05T21:03:29.052Z,81.40
2019-05-05T21:05:57.032Z,81.30
2019-05-05T21:08:28.171Z,82.20
2019-05-05T21:10:56.133Z,82.20
2019-05-05T21:13:23.977Z,81.40
2019-05-05T21:15:53.884Z,83.20
2019-05-05T21:18:23.802Z,81.40
2019-05-05T21:20:51.694Z,81.50
2019-05-05T21:23:24.943Z,82.20
2019-05-05T21:26:00.362Z,81.00
2019-05-05T21:28:28.210Z,81.50
2019-05-05T21:30:56.295Z,81.80
2019-05-05T21:33:24.303Z,81.80
2019-05-05T21:35:55.053Z,82.40
2019-05-05T21:38:22.607Z,82.50
2019-05-05T21:40:50.400Z,82.50
2019-05-05T21:43:18.105Z,82.90
2019-05-05T21:45:45.855Z,82.60
2019-05-05T21:48:13.743Z,82.70
2019-05-05T21:50:46.741Z,83.00
2019-05-05T21:53:24.666Z,83.50
2019-05-05T21:56:18.122Z,83.70
2019-05-05T21:58:45.888Z,83.80
2019-05-05T22:01:16.204Z,84.40
2019-05-05T22:03:44.455Z,84.70
2019-05-05T22:06:14.622Z,84.50
2019-05-05T22:08:42.537Z,84.40
2019-05-05T22:11:10.258Z,84.60
2019-05-05T22:13:38.124Z,85.00
2019-05-05T22:16:05.937Z,85.40
2019-05-05T22:18:33.670Z,85.70
2019-05-05T22:21:09.699Z,85.90
2019-05-05T22:23:37.518Z,85.90
2019-05-05T22:26:05.154Z,86.20
2019-05-05T22:28:34.082Z,86.30
2019-05-05T22:31:04.455Z,86.70
2019-05-05T22:33:33.971Z,86.70
2019-05-05T22:36:01.669Z,86.90
2019-05-05T22:38:29.508Z,86.10
2019-05-05T22:40:57.166Z,86.90
2019-05-05T22:43:27.375Z,87.20
2019-05-05T22:45:56.145Z,87.30
2019-05-05T22:48:24.071Z,87.80
2019-05-05T22:50:51.779Z,87.80
2019-05-05T22:53:19.509Z,88.00
2019-05-05T22:55:47.326Z,88.20
2019-05-05T22:58:15.105Z,88.50
2019-05-05T23:00:43.790Z,89.20
2019-05-05T23:03:34.413Z,89.40
2019-05-05T23:06:07.510Z,89.80
2019-05-05T23:08:35.516Z,89.90
2019-05-05T23:11:04.078Z,89.80
2019-05-05T23:13:37.871Z,89.50
2019-05-05T23:16:14.652Z,90.00
2019-05-05T23:18:44.240Z,90.00
2019-05-05T23:21:43.892Z,90.20
2019-05-05T23:24:35.828Z,90.20
2019-05-05T23:27:03.949Z,89.90
2019-05-05T23:29:34.005Z,89.70
2019-05-05T23:32:01.619Z,89.50
2019-05-05T23:34:29.291Z,89.50
2019-05-05T23:36:56.904Z,89.60
2019-05-05T23:39:24.770Z,89.60
2019-05-05T23:41:54.490Z,89.60
2019-05-05T23:44:23.825Z,89.50
2019-05-05T23:46:53.667Z,89.60
2019-05-05T23:49:21.361Z,89.60
2019-05-05T23:51:49.244Z,89.20
2019-05-05T23:54:16.942Z,89.10
2019-05-05T23:56:44.610Z,88.80
2019-05-05T23:59:13.706Z,88.80
